Time;durP1;ratioP1;P1;durP2;ratioP2;P2;SDS_P1;SDS_P2;PMS_P1;PMS_P2;Temp;Humidity;BMP_temperature;BMP_pressure;BME280_temperature;BME280_humidity;BME280_pressure;Samples;Min_cycle;Max_cycle;Signal;HPM_P1;HPM_P2
2021/07/29 00:00:12;;;;;;;15.40;11.63;;;;;;;21.68;83.02;100122.92;1704084;81;27632;-76
2021/07/29 00:02:41;;;;;;;10.10;9.05;;;;;;;21.69;83.20;100121.81;1723644;81;26546;-77
2021/07/29 00:05:08;;;;;;;15.55;10.30;;;;;;;21.66;83.27;100122.37;1757474;81;25921;-76
2021/07/29 00:07:35;;;;;;;11.73;9.00;;;;;;;21.62;83.10;100117.19;1697421;81;26564;-77
2021/07/29 00:10:05;;;;;;;11.48;8.88;;;;;;;21.59;83.10;100113.09;1706075;80;25901;-77
2021/07/29 00:12:32;;;;;;;14.40;10.05;;;;;;;21.60;83.22;100112.56;1735861;81;27098;-77
2021/07/29 00:14:59;;;;;;;11.63;9.28;;;;;;;21.56;83.15;100111.44;1755453;81;26582;-77
2021/07/29 00:19:01;;;;;;;12.65;9.00;;;;;;;21.53;83.24;100114.98;1698201;81;25745;-76
2021/07/29 00:19:59;;;;;;;8.30;6.95;;;;;;;21.51;83.19;100115.79;1701084;80;26167;-77
2021/07/29 00:22:26;;;;;;;11.28;9.43;;;;;;;21.48;83.35;100120.97;1682918;82;25627;-77
2021/07/29 00:24:53;;;;;;;15.25;10.13;;;;;;;21.45;83.83;100131.03;1729782;81;27605;-76
2021/07/29 00:27:20;;;;;;;11.28;8.38;;;;;;;21.36;83.57;100122.56;1700176;81;25897;-77
2021/07/29 00:29:47;;;;;;;15.60;10.68;;;;;;;21.33;83.74;100120.94;1728368;81;25940;-77
2021/07/29 00:32:14;;;;;;;19.27;12.37;;;;;;;21.33;83.84;100126.38;1724045;82;25793;-76
2021/07/29 00:34:41;;;;;;;15.80;10.32;;;;;;;21.32;83.92;100126.13;1760864;81;25857;-77
2021/07/29 00:37:08;;;;;;;17.73;10.28;;;;;;;21.30;84.00;100120.92;1676876;82;27342;-77
2021/07/29 00:39:35;;;;;;;10.10;8.68;;;;;;;21.29;83.92;100117.11;1718704;81;25944;-76
2021/07/29 00:42:03;;;;;;;13.90;9.98;;;;;;;21.29;84.00;100115.22;1693885;81;25873;-77
2021/07/29 00:44:30;;;;;;;12.88;10.32;;;;;;;21.31;84.00;100123.11;1747497;81;25946;-77
2021/07/29 00:46:57;;;;;;;14.63;10.20;;;;;;;21.29;84.09;100115.22;1698547;81;25795;-77
2021/07/29 00:49:24;;;;;;;14.20;9.35;;;;;;;21.27;84.11;100124.20;1714775;81;28255;-77
2021/07/29 00:51:52;;;;;;;14.78;10.28;;;;;;;21.24;84.23;100117.91;1718035;81;25815;-77
2021/07/29 00:54:19;;;;;;;15.32;11.28;;;;;;;21.22;84.31;100111.91;1753704;80;25535;-77
2021/07/29 00:56:46;;;;;;;15.55;10.30;;;;;;;21.22;84.27;100117.91;1721780;81;25758;-77
2021/07/29 00:59:13;;;;;;;15.93;11.43;;;;;;;21.21;84.41;100112.98;1722608;81;25961;-77
2021/07/29 01:01:40;;;;;;;15.38;10.38;;;;;;;21.18;84.53;100108.09;1714189;81;27622;-77
2021/07/29 01:04:08;;;;;;;16.25;11.00;;;;;;;21.15;84.52;100107.25;1754308;80;26545;-77
2021/07/29 01:06:35;;;;;;;16.90;10.53;;;;;;;21.13;84.42;100109.43;1706844;81;25829;-76
2021/07/29 01:09:09;;;;;;;17.00;11.45;;;;;;;21.14;84.58;100114.34;1722099;81;25918;-77
2021/07/29 01:11:37;;;;;;;14.10;9.93;;;;;;;21.13;84.74;100108.60;1731567;81;25939;-77
2021/07/29 01:14:05;;;;;;;14.83;10.40;;;;;;;21.11;84.68;100110.78;1763712;81;28332;-76
2021/07/29 01:16:33;;;;;;;15.00;10.40;;;;;;;21.08;84.96;100118.14;1696646;82;25885;-76
2021/07/29 01:19:01;;;;;;;13.62;11.80;;;;;;;21.04;85.09;100112.95;1701696;82;25799;-76
2021/07/29 01:21:30;;;;;;;15.18;11.30;;;;;;;21.02;85.05;100115.09;1696273;82;25773;-77
2021/07/29 01:23:58;;;;;;;16.73;11.10;;;;;;;21.02;85.05;100101.48;1779723;80;25834;-77
2021/07/29 01:26:27;;;;;;;14.60;10.60;;;;;;;21.03;85.40;100108.58;1663919;82;28000;-76
2021/07/29 01:28:56;;;;;;;15.00;10.68;;;;;;;20.98;85.27;100101.17;1728055;81;25845;-77
2021/07/29 01:31:23;;;;;;;16.20;10.35;;;;;;;20.96;85.25;100097.07;1729797;80;25956;-76
2021/07/29 01:33:51;;;;;;;19.32;12.58;;;;;;;20.96;85.38;100099.80;1761206;81;26444;-76
2021/07/29 01:36:19;;;;;;;14.98;11.43;;;;;;;20.94;85.37;100106.05;1676590;81;25401;-76
2021/07/29 01:38:46;;;;;;;15.85;11.40;;;;;;;20.92;85.34;100109.05;1716731;81;28292;-76
2021/07/29 01:41:13;;;;;;;20.48;13.35;;;;;;;20.91;85.47;100107.43;1717024;81;25442;-77
2021/07/29 01:43:40;;;;;;;17.45;12.07;;;;;;;20.88;85.37;100110.67;1747194;81;25915;-76
2021/07/29 01:46:07;;;;;;;19.95;12.03;;;;;;;20.84;85.44;100102.76;1693324;81;26632;-77
2021/07/29 01:48:35;;;;;;;21.12;12.98;;;;;;;20.86;85.40;100102.48;1706765;81;25945;-77
2021/07/29 01:51:02;;;;;;;19.60;11.73;;;;;;;20.87;85.18;100105.50;1728953;80;28552;-76
2021/07/29 01:53:29;;;;;;;20.48;13.38;;;;;;;20.83;85.02;100105.19;1753317;81;25770;-76
2021/07/29 01:55:56;;;;;;;17.65;12.47;;;;;;;20.81;85.01;100095.11;1683122;81;26023;-76
2021/07/29 01:58:23;;;;;;;21.50;13.30;;;;;;;20.78;84.86;100100.28;1713265;81;25757;-77
2021/07/29 02:00:53;;;;;;;22.10;13.20;;;;;;;20.76;84.90;100100.55;1729619;81;26006;-76
2021/07/29 02:03:20;;;;;;;23.83;12.82;;;;;;;20.71;84.88;100097.80;1754416;81;27639;-77
2021/07/29 02:05:47;;;;;;;21.52;13.53;;;;;;;20.65;85.18;100102.41;1682851;81;25927;-76
2021/07/29 02:08:14;;;;;;;25.97;16.15;;;;;;;20.59;84.92;100099.92;1709067;81;25950;-77
2021/07/29 02:10:41;;;;;;;24.32;12.98;;;;;;;20.58;85.08;100099.62;1755722;81;25893;-77
2021/07/29 02:13:08;;;;;;;23.42;13.18;;;;;;;20.56;85.01;100101.27;1700950;81;26402;-76
2021/07/29 02:15:35;;;;;;;18.02;12.25;;;;;;;20.55;84.88;100110.50;1755220;81;27597;-77
2021/07/29 02:18:03;;;;;;;22.70;12.55;;;;;;;20.51;84.77;100115.36;1704939;81;25922;-76
2021/07/29 02:20:31;;;;;;;20.05;14.05;;;;;;;20.48;84.96;100120.81;1722258;81;26507;-77
2021/07/29 02:22:58;;;;;;;21.42;12.43;;;;;;;20.46;84.90;100121.63;1701690;81;26678;-76
2021/07/29 02:25:25;;;;;;;25.70;13.98;;;;;;;20.44;85.03;100122.96;1753168;81;25762;-77
2021/07/29 02:27:52;;;;;;;26.37;14.70;;;;;;;20.39;84.84;100117.47;1698483;82;28277;-76
2021/07/29 02:30:19;;;;;;;29.35;14.98;;;;;;;20.34;85.03;100120.98;1703504;81;25750;-76
2021/07/29 02:32:47;;;;;;;20.08;13.08;;;;;;;20.29;84.93;100126.41;1699463;81;26532;-77
2021/07/29 02:35:14;;;;;;;22.82;13.75;;;;;;;20.25;84.75;100127.98;1755054;81;25722;-76
2021/07/29 02:37:42;;;;;;;15.93;11.65;;;;;;;20.22;84.72;100127.70;1726825;81;25930;-76
2021/07/29 02:40:11;;;;;;;20.45;13.00;;;;;;;20.19;84.58;100128.20;1724627;81;27453;-77
2021/07/29 02:42:38;;;;;;;26.17;14.25;;;;;;;20.18;84.61;100125.19;1703473;81;25862;-76
2021/07/29 02:45:06;;;;;;;21.95;12.78;;;;;;;20.13;84.83;100121.89;1758025;81;26589;-76
2021/07/29 02:47:33;;;;;;;22.70;13.48;;;;;;;20.08;84.76;100129.99;1724805;81;25924;-77
2021/07/29 02:50:00;;;;;;;33.30;14.95;;;;;;;20.04;84.69;100130.80;1715109;81;25894;-76
2021/07/29 02:52:27;;;;;;;18.75;13.35;;;;;;;20.00;84.74;100134.55;1696372;79;28117;-76
2021/07/29 02:54:54;;;;;;;22.42;15.08;;;;;;;19.97;84.72;100145.41;1751150;81;25751;-77
2021/07/29 02:57:21;;;;;;;22.73;14.45;;;;;;;19.94;84.73;100145.11;1703367;81;25851;-76
2021/07/29 02:59:48;;;;;;;22.30;13.05;;;;;;;19.90;84.91;100143.99;1722916;81;25862;-77
2021/07/29 03:02:15;;;;;;;22.90;12.78;;;;;;;19.85;84.79;100152.92;1690932;81;26626;-77
2021/07/29 03:04:42;;;;;;;43.80;22.32;;;;;;;19.81;84.62;100145.53;1758189;80;28137;-76
2021/07/29 03:07:09;;;;;;;18.98;12.65;;;;;;;19.78;84.70;100145.50;1700080;81;25829;-76
2021/07/29 03:09:36;;;;;;;23.65;13.43;;;;;;;19.78;84.63;100158.30;1707740;81;25883;-76
2021/07/29 03:12:04;;;;;;;18.07;12.53;;;;;;;19.77;84.43;100162.08;1696663;81;26528;-76
2021/07/29 03:14:31;;;;;;;16.20;10.35;;;;;;;19.74;84.33;100163.41;1753534;80;25623;-76
2021/07/29 03:16:58;;;;;;;18.77;14.20;;;;;;;19.72;84.21;100173.72;1693609;81;28286;-77
2021/07/29 03:19:25;;;;;;;16.95;11.48;;;;;;;19.67;84.08;100170.14;1728420;80;25788;-77
2021/07/29 03:21:52;;;;;;;17.40;12.05;;;;;;;19.63;84.16;100173.09;1698289;79;26607;-76
2021/07/29 03:24:19;;;;;;;17.80;11.53;;;;;;;19.63;84.16;100173.09;1759215;79;25815;-76
2021/07/29 03:26:46;;;;;;;18.27;11.70;;;;;;;19.60;83.86;100170.88;1706552;81;25879;-76
2021/07/29 03:29:14;;;;;;;20.72;11.80;;;;;;;19.57;83.92;100171.38;1732110;81;27568;-76
2021/07/29 03:31:41;;;;;;;22.00;11.88;;;;;;;19.51;83.81;100174.59;1704398;81;25827;-76
2021/07/29 03:34:08;;;;;;;17.87;10.88;;;;;;;19.51;83.78;100174.59;1741834;82;25757;-76
2021/07/29 03:36:35;;;;;;;18.35;11.03;;;;;;;19.50;83.72;100172.96;1701851;81;26381;-76
2021/07/29 03:39:05;;;;;;;15.88;10.38;;;;;;;19.48;83.59;100178.36;1716570;81;26567;-76
2021/07/29 03:41:31;;;;;;;15.80;10.63;;;;;;;19.45;83.61;100176.97;1746194;81;27397;-75
2021/07/29 03:43:58;;;;;;;16.27;10.85;;;;;;;19.47;83.54;100176.70;1731387;81;25920;-76
2021/07/29 03:46:25;;;;;;;20.45;11.55;;;;;;;19.46;83.41;100179.95;1698411;81;26453;-76
2021/07/29 03:48:57;;;;;;;21.35;10.82;;;;;;;19.47;83.26;100183.50;1704623;81;25902;-76
2021/07/29 03:51:24;;;;;;;20.80;11.50;;;;;;;19.42;83.15;100177.47;1691203;81;25870;-76
2021/07/29 03:53:52;;;;;;;14.73;10.23;;;;;;;19.39;83.03;100182.59;1754073;80;28320;-76
2021/07/29 03:56:19;;;;;;;15.95;11.12;;;;;;;19.37;83.19;100186.11;1704733;81;25769;-76
2021/07/29 03:58:46;;;;;;;15.30;9.18;;;;;;;19.36;83.00;100193.42;1704770;81;26644;-76
2021/07/29 04:01:13;;;;;;;17.60;10.13;;;;;;;19.35;82.93;100190.44;1726718;81;25981;-76
2021/07/29 04:03:40;;;;;;;16.87;9.88;;;;;;;19.36;83.08;100193.42;1716013;82;25879;-76
2021/07/29 04:06:07;;;;;;;18.20;11.25;;;;;;;19.44;83.32;100194.33;1653874;82;27730;-76
2021/07/29 04:08:34;;;;;;;19.75;15.25;;;;;;;19.52;82.85;100195.26;1681606;82;25864;-76
2021/07/29 04:11:04;;;;;;;16.15;10.13;;;;;;;19.50;82.62;100200.66;1682254;82;25851;-77
2021/07/29 04:13:31;;;;;;;13.75;8.95;;;;;;;19.49;82.37;100200.36;1736564;82;25829;-77
2021/07/29 04:16:00;;;;;;;13.22;8.53;;;;;;;19.47;82.12;100207.41;1638279;84;25843;-77
2021/07/29 04:18:28;;;;;;;14.73;8.80;;;;;;;19.43;82.24;100203.56;1687473;82;27526;-76
2021/07/29 04:20:55;;;;;;;12.18;9.15;;;;;;;19.43;82.24;100202.73;1658251;83;26009;-76
2021/07/29 04:23:22;;;;;;;13.85;9.90;;;;;;;19.44;82.26;100208.47;1690958;84;25885;-76
2021/07/29 04:25:49;;;;;;;23.38;13.88;;;;;;;19.47;82.35;100210.13;1664788;82;26817;-76
2021/07/29 04:28:16;;;;;;;16.95;9.70;;;;;;;19.50;82.29;100211.52;1700375;82;25836;-76
2021/07/29 04:30:43;;;;;;;13.53;9.95;;;;;;;19.52;82.13;100211.56;1671382;82;27562;-76
2021/07/29 04:33:10;;;;;;;19.00;12.18;;;;;;;19.51;81.95;100213.15;1725979;82;25982;-77
2021/07/29 04:35:41;;;;;;;14.80;10.95;;;;;;;19.52;82.04;100216.99;1666980;84;26454;-77
2021/07/29 04:38:08;;;;;;;12.58;9.80;;;;;;;19.54;81.91;100209.94;1695107;82;25946;-76
2021/07/29 04:40:35;;;;;;;12.18;9.25;;;;;;;19.56;81.81;100212.69;1673456;82;25930;-76
2021/07/29 04:43:02;;;;;;;20.00;12.98;;;;;;;19.56;81.90;100209.97;1721118;82;28313;-76
2021/07/29 04:45:29;;;;;;;13.70;9.13;;;;;;;19.61;81.99;100212.72;1692657;82;25951;-76
2021/07/29 04:47:56;;;;;;;12.88;8.30;;;;;;;19.65;81.81;100217.93;1681906;82;25415;-76
2021/07/29 04:50:23;;;;;;;9.55;7.85;;;;;;;19.71;81.54;100214.75;1676740;82;25821;-77
2021/07/29 04:52:52;;;;;;;16.15;8.58;;;;;;;19.70;81.33;100213.92;1742766;80;26472;-76
2021/07/29 04:55:19;;;;;;;11.97;8.80;;;;;;;19.71;81.47;100219.65;1713735;80;28278;-76
2021/07/29 04:57:46;;;;;;;16.40;8.58;;;;;;;19.77;81.38;100216.44;1732170;81;25528;-76
2021/07/29 05:00:14;;;;;;;16.25;8.55;;;;;;;19.78;81.33;100222.17;1709172;80;26545;-76
2021/07/29 05:02:41;;;;;;;11.53;8.03;;;;;;;19.77;80.81;100220.52;1731820;81;25858;-76
2021/07/29 05:05:09;;;;;;;12.47;8.90;;;;;;;19.75;80.67;100219.42;1705824;81;25854;-77
2021/07/29 05:07:36;;;;;;;16.05;8.50;;;;;;;19.74;80.67;100220.48;1713249;81;28637;-76
2021/07/29 05:10:04;;;;;;;13.30;7.75;;;;;;;19.76;80.76;100222.97;1708528;81;25658;-77
2021/07/29 05:12:31;;;;;;;14.05;7.72;;;;;;;19.80;80.75;100220.81;1773969;80;26422;-77
2021/07/29 05:14:58;;;;;;;14.63;7.92;;;;;;;19.87;80.73;100213.81;1711181;81;26398;-76
2021/07/29 05:17:25;;;;;;;12.30;7.60;;;;;;;19.95;81.06;100225.05;1708585;81;25687;-76
2021/07/29 05:19:52;;;;;;;14.63;8.00;;;;;;;19.98;80.23;100225.91;1736854;80;28049;-76
2021/07/29 05:22:19;;;;;;;10.43;7.37;;;;;;;19.99;80.19;100226.17;1732415;81;26156;-76
2021/07/29 05:24:46;;;;;;;13.53;7.72;;;;;;;20.05;80.37;100229.78;1733937;80;25800;-76
2021/07/29 05:27:13;;;;;;;14.05;7.67;;;;;;;20.12;80.36;100224.95;1707503;81;25936;-76
2021/07/29 05:29:40;;;;;;;9.83;7.70;;;;;;;20.18;80.09;100235.33;1704158;81;25852;-77
2021/07/29 05:32:08;;;;;;;13.43;8.30;;;;;;;20.23;79.73;100228.62;1758184;81;27582;-76
2021/07/29 05:34:35;;;;;;;11.70;7.70;;;;;;;20.25;79.63;100222.38;1712668;80;25849;-76
2021/07/29 05:37:04;;;;;;;10.63;7.42;;;;;;;20.29;79.56;100218.89;1708031;81;25339;-76
2021/07/29 05:39:34;;;;;;;9.65;7.45;;;;;;;20.31;79.05;100222.70;1745444;81;26644;-76
2021/07/29 05:42:01;;;;;;;11.33;7.78;;;;;;;20.34;79.29;100220.80;1724515;81;33178;-76
2021/07/29 05:44:28;;;;;;;10.43;7.65;;;;;;;20.36;78.70;100222.19;1779398;80;28211;-76
2021/07/29 05:46:56;;;;;;;9.33;7.47;;;;;;;20.39;78.75;100223.58;1684574;81;25965;-76
2021/07/29 05:49:23;;;;;;;10.38;7.70;;;;;;;20.45;78.62;100226.08;1717273;81;26498;-76
2021/07/29 05:51:50;;;;;;;12.15;7.45;;;;;;;20.56;79.01;100223.72;1731868;81;25815;-76
2021/07/29 05:54:17;;;;;;;9.23;7.45;;;;;;;20.64;78.36;100222.40;1759854;80;25813;-76
2021/07/29 05:56:46;;;;;;;12.70;7.95;;;;;;;20.71;77.93;100225.72;1689672;80;27440;-76
2021/07/29 05:59:13;;;;;;;11.88;7.15;;;;;;;20.75;78.33;100214.59;1736624;82;25904;-76
2021/07/29 06:01:40;;;;;;;11.95;8.03;;;;;;;20.82;77.80;100220.63;1716372;81;26565;-76
2021/07/29 06:04:07;;;;;;;13.62;7.50;;;;;;;20.89;77.47;100224.48;1767030;80;25893;-76
2021/07/29 06:06:34;;;;;;;11.90;7.70;;;;;;;20.96;77.04;100221.80;1662267;82;25799;-76
2021/07/29 06:09:01;;;;;;;10.65;7.08;;;;;;;21.00;76.81;100223.47;1746168;80;27606;-77
2021/07/29 06:11:28;;;;;;;8.85;7.58;;;;;;;21.06;76.59;100227.35;1757846;80;25883;-76
2021/07/29 06:13:55;;;;;;;11.30;6.85;;;;;;;21.12;76.69;100226.82;1727257;82;25831;-76
2021/07/29 06:16:22;;;;;;;10.90;7.35;;;;;;;21.19;76.07;100229.57;1690534;81;25815;-76
2021/07/29 06:19:03;;;;;;;11.05;7.62;;;;;;;21.26;75.88;100232.88;1703487;80;26592;-76
2021/07/29 06:21:21;;;;;;;11.50;7.12;;;;;;;21.31;75.63;100232.09;1705388;82;27498;-76
2021/07/29 06:23:48;;;;;;;8.10;6.95;;;;;;;21.38;74.96;100236.20;1727150;81;25818;-76
2021/07/29 06:26:15;;;;;;;14.58;7.33;;;;;;;21.45;75.36;100237.31;1685285;80;26557;-76
2021/07/29 06:28:42;;;;;;;12.85;6.92;;;;;;;21.52;74.61;100237.90;1694653;81;25833;-76
2021/07/29 06:31:09;;;;;;;10.98;7.22;;;;;;;21.57;74.18;100237.09;1712676;81;25781;-76
2021/07/29 06:33:36;;;;;;;9.58;6.33;;;;;;;21.61;73.93;100240.92;1750622;81;27492;-75
2021/07/29 06:36:04;;;;;;;10.03;6.72;;;;;;;21.68;73.86;100236.87;1694220;81;25862;-76
2021/07/29 06:38:31;;;;;;;10.23;6.95;;;;;;;21.74;73.99;100244.52;1720820;81;25906;-76
2021/07/29 06:40:58;;;;;;;8.08;6.47;;;;;;;21.85;74.30;100245.69;1713648;82;25870;-76
2021/07/29 06:43:25;;;;;;;11.30;7.28;;;;;;;21.95;73.63;100246.23;1754705;81;25944;-76
2021/07/29 06:45:52;;;;;;;8.05;6.00;;;;;;;22.01;73.40;100244.61;1688647;82;27447;-77
2021/07/29 06:48:19;;;;;;;9.60;6.37;;;;;;;22.07;73.67;100251.70;1714551;81;26258;-76
2021/07/29 06:50:46;;;;;;;10.32;6.55;;;;;;;22.14;73.45;100248.18;1713079;82;26209;-76
2021/07/29 06:53:13;;;;;;;10.45;7.03;;;;;;;22.19;71.59;100253.66;1751619;81;26486;-76
2021/07/29 06:55:40;;;;;;;8.25;6.22;;;;;;;22.22;72.25;100258.55;1653900;84;25898;-76
2021/07/29 06:58:07;;;;;;;14.43;7.37;;;;;;;22.32;72.65;100250.94;1662282;84;27661;-76
2021/07/29 07:00:34;;;;;;;7.97;5.85;;;;;;;22.40;72.57;100244.93;1684051;82;25942;-76
2021/07/29 07:03:01;;;;;;;9.48;6.75;;;;;;;22.49;72.32;100251.48;1710285;83;25831;-77
2021/07/29 07:05:29;;;;;;;8.00;6.40;;;;;;;22.55;71.29;100251.75;1660234;82;26528;-76
2021/07/29 07:07:56;;;;;;;8.73;6.25;;;;;;;22.61;71.63;100245.77;1677428;82;26006;-76
2021/07/29 07:10:23;;;;;;;11.10;7.12;;;;;;;22.65;70.61;100249.05;1692726;82;28271;-76
2021/07/29 07:12:50;;;;;;;7.70;6.12;;;;;;;22.74;69.82;100247.94;1720269;82;25763;-76
2021/07/29 07:15:17;;;;;;;9.00;6.22;;;;;;;22.79;70.59;100237.02;1651019;82;26514;-76
2021/07/29 07:17:44;;;;;;;17.35;10.35;;;;;;;22.87;70.61;100238.65;1695550;82;26514;-76
2021/07/29 07:20:11;;;;;;;13.20;7.15;;;;;;;22.96;70.13;100234.81;1691110;82;25831;-76
2021/07/29 07:22:38;;;;;;;9.73;6.05;;;;;;;23.02;69.55;100237.80;1676610;82;27416;-76
2021/07/29 07:25:06;;;;;;;9.60;5.85;;;;;;;23.06;69.03;100237.50;1655716;82;26670;-76
2021/07/29 07:27:33;;;;;;;9.53;6.67;;;;;;;23.08;69.10;100234.48;1697196;82;25920;-76
2021/07/29 07:30:02;;;;;;;9.28;5.53;;;;;;;23.12;69.20;100236.39;1726559;81;25834;-76
2021/07/29 07:32:29;;;;;;;9.03;6.50;;;;;;;23.21;68.30;100244.30;1703298;83;25767;-76
2021/07/29 07:34:56;;;;;;;7.40;5.72;;;;;;;23.25;68.36;100248.11;1633476;84;27558;-76
2021/07/29 07:37:23;;;;;;;8.00;6.60;;;;;;;23.26;67.42;100244.29;1665296;84;25858;-76
2021/07/29 07:39:50;;;;;;;8.78;5.97;;;;;;;23.29;67.94;100242.34;1680681;84;25627;-76
2021/07/29 07:42:17;;;;;;;6.70;5.65;;;;;;;23.33;67.12;100245.39;1754027;81;26363;-76
2021/07/29 07:44:45;;;;;;;7.12;5.72;;;;;;;23.36;67.56;100250.28;1670301;82;44880;-76
2021/07/29 07:47:12;;;;;;;8.05;6.45;;;;;;;23.39;67.42;100242.36;1696526;81;27508;-76
2021/07/29 07:49:40;;;;;;;8.25;5.62;;;;;;;23.48;67.45;100243.97;1675722;83;25852;-76
2021/07/29 07:52:10;;;;;;;7.78;6.05;;;;;;;23.55;66.58;100243.92;1756258;81;25768;-76
2021/07/29 07:54:37;;;;;;;8.65;4.92;;;;;;;23.63;66.86;100246.64;1724147;81;25928;-76
2021/07/29 07:57:07;;;;;;;10.98;6.78;;;;;;;23.69;66.79;100243.57;1678123;81;25355;-76
2021/07/29 07:59:37;;;;;;;8.43;5.33;;;;;;;23.83;65.79;100242.95;1715757;81;28217;-76
2021/07/29 08:02:06;;;;;;;10.10;5.35;;;;;;;23.89;66.39;100244.02;1734913;82;25332;-76
2021/07/29 08:04:34;;;;;;;8.98;5.58;;;;;;;23.95;65.07;100244.82;1717258;81;25765;-76
2021/07/29 08:07:01;;;;;;;9.85;5.95;;;;;;;23.98;65.75;100239.59;1697538;81;25852;-76
2021/07/29 08:09:28;;;;;;;7.47;5.03;;;;;;;24.06;65.97;100239.59;1704489;81;25713;-77
2021/07/29 08:11:55;;;;;;;9.40;6.42;;;;;;;24.14;65.39;100241.71;1760427;81;28177;-77
2021/07/29 08:14:22;;;;;;;6.78;5.67;;;;;;;24.18;65.00;100236.76;1710235;82;25749;-76
2021/07/29 08:16:49;;;;;;;6.47;5.72;;;;;;;24.19;64.57;100242.48;1693297;81;26593;-77
2021/07/29 08:19:16;;;;;;;7.30;5.03;;;;;;;24.19;64.44;100239.74;1701755;81;25904;-76
2021/07/29 08:21:43;;;;;;;11.63;5.20;;;;;;;24.18;63.37;100238.67;1776507;80;25723;-77
2021/07/29 08:24:11;;;;;;;7.45;5.85;;;;;;;24.15;63.39;100238.69;1723112;81;27908;-77
2021/07/29 08:26:38;;;;;;;8.35;5.33;;;;;;;24.19;63.86;100234.81;1680074;80;25329;-77
2021/07/29 08:29:05;;;;;;;6.72;5.20;;;;;;;24.29;63.80;100234.19;1701389;81;25826;-76
2021/07/29 08:31:32;;;;;;;8.03;5.62;;;;;;;24.41;63.51;100225.62;1750082;81;25909;-77
2021/07/29 08:33:59;;;;;;;7.90;6.33;;;;;;;24.47;63.27;100228.57;1741427;80;26016;-77
2021/07/29 08:36:26;;;;;;;6.78;6.08;;;;;;;24.49;63.34;100231.84;1729746;81;27544;-76
2021/07/29 08:38:53;;;;;;;7.70;6.17;;;;;;;24.50;63.27;100227.47;1687787;82;25901;-76
2021/07/29 08:41:20;;;;;;;8.88;5.17;;;;;;;24.53;62.08;100221.15;1757134;81;25322;-76
2021/07/29 08:43:47;;;;;;;9.55;6.17;;;;;;;24.55;61.93;100225.78;1689559;81;26532;-76
2021/07/29 08:46:19;;;;;;;7.05;5.97;;;;;;;24.55;61.33;100222.47;1681717;82;25931;-77
2021/07/29 08:48:50;;;;;;;7.30;5.87;;;;;;;24.60;62.74;100223.80;1719768;81;27595;-77
2021/07/29 08:51:26;;;;;;;7.83;5.53;;;;;;;24.72;62.05;100226.17;1758153;81;25834;-77
2021/07/29 08:53:53;;;;;;;9.68;6.65;;;;;;;24.76;61.02;100225.34;1697970;82;25890;-76
2021/07/29 08:56:24;;;;;;;7.30;5.35;;;;;;;24.80;61.35;100226.94;1696963;80;26613;-76
2021/07/29 08:58:52;;;;;;;6.47;4.37;;;;;;;24.83;60.56;100222.27;1707845;82;25981;-77
2021/07/29 09:01:19;;;;;;;8.05;5.53;;;;;;;24.88;61.81;100228.50;1730452;82;27507;-77
2021/07/29 09:03:49;;;;;;;6.45;5.03;;;;;;;24.93;61.75;100222.98;1762527;80;25909;-77
2021/07/29 09:06:15;;;;;;;6.05;5.03;;;;;;;25.05;62.01;100217.90;1711955;82;25965;-77
2021/07/29 09:08:52;;;;;;;7.03;5.03;;;;;;;25.17;61.85;100221.62;1722101;81;25984;-77
2021/07/29 09:11:39;;;;;;;9.08;5.03;;;;;;;25.26;60.99;100216.55;1688695;82;25900;-77
2021/07/29 09:14:15;;;;;;;5.47;4.72;;;;;;;25.31;60.42;100217.05;1719168;80;27530;-77
2021/07/29 09:16:58;;;;;;;6.50;4.83;;;;;;;25.39;60.23;100227.37;1757310;81;25866;-77
2021/07/29 09:19:35;;;;;;;5.05;4.55;;;;;;;25.39;59.76;100222.43;1707886;81;25822;-77
2021/07/29 09:22:16;;;;;;;10.32;7.22;;;;;;;25.40;60.25;100226.81;1688008;82;25683;-77
2021/07/29 09:25:03;;;;;;;9.65;5.65;;;;;;;25.43;59.24;100222.95;1743978;80;25811;-77
2021/07/29 09:27:44;;;;;;;9.65;6.40;;;;;;;25.49;60.17;100225.09;1746661;81;27247;-77
2021/07/29 09:30:30;;;;;;;8.98;5.72;;;;;;;25.58;59.69;100224.13;1720285;81;26496;-77
2021/07/29 09:33:17;;;;;;;7.85;6.12;;;;;;;25.65;59.13;100218.28;1712958;82;25885;-77
2021/07/29 09:35:49;;;;;;;10.00;6.78;;;;;;;25.72;59.05;100225.05;1753743;79;25821;-77
2021/07/29 09:38:31;;;;;;;10.30;7.22;;;;;;;25.81;59.23;100224.63;1757148;81;26430;-77
2021/07/29 09:41:06;;;;;;;9.05;5.00;;;;;;;25.89;59.09;100215.75;1695291;82;27481;-77
2021/07/29 09:43:36;;;;;;;9.35;6.15;;;;;;;25.99;59.17;100218.34;1707385;80;25879;-77
2021/07/29 09:46:16;;;;;;;9.60;6.55;;;;;;;26.07;57.41;100213.30;1738737;81;25850;-77
2021/07/29 09:48:45;;;;;;;9.30;6.12;;;;;;;25.98;58.26;100213.16;1727781;82;25942;-77
2021/07/29 09:51:12;;;;;;;11.63;7.70;;;;;;;25.97;58.22;100213.70;1655765;82;26113;-77
2021/07/29 09:53:39;;;;;;;5.62;4.55;;;;;;;25.94;56.85;100211.55;1686501;80;27460;-77
2021/07/29 09:56:13;;;;;;;7.87;6.00;;;;;;;25.78;57.02;100210.15;1735931;82;26310;-77
2021/07/29 09:58:43;;;;;;;5.95;5.05;;;;;;;25.75;57.90;100215.39;1728603;81;25869;-77
2021/07/29 10:01:11;;;;;;;5.47;4.55;;;;;;;25.81;58.64;100212.28;1703995;80;26747;-77
2021/07/29 10:03:43;;;;;;;4.53;4.10;;;;;;;25.90;58.25;100214.63;1691342;81;25956;-77
2021/07/29 10:06:16;;;;;;;7.95;3.90;;;;;;;25.98;57.69;100213.95;1770949;79;27640;-77
2021/07/29 10:08:57;;;;;;;4.47;3.70;;;;;;;26.10;56.49;100208.61;1751396;81;25803;-77
2021/07/29 10:11:27;;;;;;;;;;;;;;;26.12;56.28;100213.23;1722585;81;26495;-78
2021/07/29 10:13:54;;;;;;;9.55;5.30;;;;;;;26.13;54.62;100206.09;1719828;81;25795;-77
2021/07/29 10:16:47;;;;;;;4.70;4.00;;;;;;;26.13;55.35;100212.96;1717910;81;25972;-78
2021/07/29 10:19:15;;;;;;;4.67;4.08;;;;;;;26.09;54.76;100206.41;1713181;82;27686;-77
2021/07/29 10:21:48;;;;;;;6.15;4.28;;;;;;;26.08;54.46;100207.53;1703120;81;25847;-78
2021/07/29 10:24:13;;;;;;;5.75;3.52;;;;;;;26.01;54.78;100212.00;1715505;81;25815;-77
2021/07/29 10:27:02;;;;;;;3.85;3.50;;;;;;;26.01;55.03;100211.17;1757074;81;25828;-78
2021/07/29 10:29:30;;;;;;;5.75;3.67;;;;;;;26.02;55.45;100210.87;1709195;81;25913;-77
2021/07/29 10:32:10;;;;;;;6.47;4.35;;;;;;;26.09;55.39;100208.36;1703872;81;27569;-77
2021/07/29 10:34:37;;;;;;;3.50;3.02;;;;;;;26.08;56.03;100209.42;1712547;82;25906;-77
2021/07/29 10:37:09;;;;;;;4.92;3.70;;;;;;;26.08;54.71;100217.66;1716346;80;26219;-77
2021/07/29 10:40:00;;;;;;;3.30;3.02;;;;;;;26.06;53.89;100217.14;1721778;81;25859;-77
2021/07/29 10:42:29;;;;;;;5.33;3.50;;;;;;;26.06;54.50;100211.11;1698971;81;25920;-77
2021/07/29 10:44:58;;;;;;;4.40;4.00;;;;;;;26.03;54.33;100211.14;1696246;81;27488;-77
2021/07/29 10:47:40;;;;;;;3.52;3.22;;;;;;;26.02;54.28;100201.84;1763311;80;25736;-77
2021/07/29 10:50:10;;;;;;;3.47;3.10;;;;;;;26.06;53.12;100200.67;1698755;81;25833;-78
2021/07/29 10:52:38;;;;;;;4.57;4.13;;;;;;;26.15;55.03;100204.41;1714144;82;26623;-78
2021/07/29 10:55:09;;;;;;;4.35;4.00;;;;;;;26.25;54.63;100194.63;1694598;81;25396;-78
2021/07/29 10:57:36;;;;;;;4.97;3.47;;;;;;;26.31;54.13;100194.25;1761542;81;27513;-79
2021/07/29 11:00:05;;;;;;;5.22;3.65;;;;;;;26.42;53.22;100199.02;1690891;82;26342;-79
2021/07/29 11:02:38;;;;;;;6.75;5.08;;;;;;;26.51;52.92;100198.59;1704975;81;26010;-78
2021/07/29 11:05:08;;;;;;;7.28;5.45;;;;;;;26.61;53.13;100192.91;1713759;82;25869;-78
2021/07/29 11:07:33;;;;;;;4.72;4.22;;;;;;;26.71;53.37;100193.53;1756287;80;25794;-77
2021/07/29 11:10:10;;;;;;;6.03;4.72;;;;;;;26.75;52.02;100200.67;1708141;81;27572;-78
2021/07/29 11:12:40;;;;;;;9.88;4.92;;;;;;;26.59;51.37;100197.89;1748216;81;25821;-78
2021/07/29 11:15:09;;;;;;;6.35;5.00;;;;;;;26.50;52.25;100200.52;1702233;81;25892;-78
2021/07/29 11:17:37;;;;;;;4.83;3.22;;;;;;;26.51;52.68;100196.67;1756359;81;25833;-78
2021/07/29 11:20:08;;;;;;;5.15;3.50;;;;;;;26.50;52.01;100195.57;1690475;82;26010;-78
2021/07/29 11:22:44;;;;;;;8.60;4.45;;;;;;;26.59;53.31;100196.52;1696401;80;27475;-77